Mestre Joao Rico — CURN — position and weather

sailwx.info

Track history (hours):
 
Tides and Currents Weather Stations Pressure Air Temp Water Temp Dewpoint Dewpoint Depression Visibility Wind Speed Wind Dir Waves Ship Positions

Mestre Joao Rico

Last reported at 2017-Sep-06 12:56 UTC. Time now 2017-Sep-26 16:39 UTC.
Position N 36°51' W 008°04'.
Warning: this ship's position is 20 days out of date.

Length 24 m.

Type: Fishing. MMSI: 263462000.

Date/timePositionNaut miles runAvg speedWind from/ knotsBaromVisibWave heightAir tempDewpointWater temp
2017-Sep-06 12:56N 36°51' W 008°04'1 1.7
2017-Sep-06 12:30N 36°50' W 008°04'2 3.0
2017-Sep-06 12:00N 36°50' W 008°06'1 3.0
2017-Sep-06 11:30N 36°49' W 008°08'2 2.8
2017-Sep-06 10:57N 36°49' W 008°10'1 3.1
2017-Sep-06 10:30N 36°49' W 008°12'2 4.1
2017-Sep-06 10:00N 36°49' W 008°14'2 3.3
2017-Sep-06 09:30N 36°49' W 008°16'2 3.1
2017-Sep-06 09:00N 36°49' W 008°18'2 3.1
2017-Sep-06 08:30N 36°49' W 008°20'2 3.1
2017-Sep-06 08:00N 36°49' W 008°22'2 3.1
2017-Sep-06 07:30N 36°49' W 008°24'2 3.1
2017-Sep-06 07:00N 36°50' W 008°26'2 3.0
2017-Sep-06 06:26N 36°49' W 008°28'1 2.7
2017-Sep-06 05:56N 36°49' W 008°30'6 9.9
2017-Sep-06 05:22N 36°48' W 008°36'0 0.9
2017-Sep-06 04:58N 36°48' W 008°37'1 2.4
2017-Sep-06 04:23N 36°48' W 008°39'1 3.0
2017-Sep-06 03:57N 36°48' W 008°40'2 3.0
2017-Sep-06 03:26N 36°48' W 008°42'5 3.0
2017-Sep-06 01:47N 36°49' W 008°48'1 2.9
2017-Sep-06 01:30N 36°50' W 008°49'2 2.9
2017-Sep-06 00:49N 36°49' W 008°52'1 4.3
2017-Sep-06 00:30N 36°49' W 008°53'2 1.2
2017-Sep-05 23:01N 36°49' W 008°51'0 2.8
2017-Sep-05 23:00N 36°49' W 008°51'1 2.6
2017-Sep-05 22:30N 36°50' W 008°50'1 2.7
2017-Sep-05 22:00N 36°50' W 008°48'1 2.7
2017-Sep-05 21:30N 36°50' W 008°46'1 2.8
2017-Sep-05 21:00N 36°49' W 008°45'1 2.8
2017-Sep-05 20:30N 36°49' W 008°43'1 2.9
2017-Sep-05 20:00N 36°49' W 008°41'3 6.3
2017-Sep-05 19:30N 36°49' W 008°37'5 9.3
2017-Sep-05 19:00N 36°49' W 008°31'2 3.1
2017-Sep-05 18:30N 36°49' W 008°29'0 0.3
2017-Sep-05 18:00N 36°49' W 008°30'1 1.0
2017-Sep-05 17:26N 36°49' W 008°29'2 3.3
2017-Sep-05 16:51N 36°50' W 008°27'2 3.2
2017-Sep-05 16:08N 36°50' W 008°24'1 3.2
2017-Sep-05 15:58N 36°49' W 008°24'2 3.3
2017-Sep-05 15:29N 36°49' W 008°22'1 2.9
2017-Sep-05 15:00N 36°49' W 008°20'2 3.3
2017-Sep-05 14:17N 36°49' W 008°23'1 3.3
2017-Sep-05 14:00N 36°49' W 008°24'2 3.3
2017-Sep-05 13:30N 36°49' W 008°26'2 3.2
2017-Sep-05 13:00N 36°50' W 008°28'1 2.0
2017-Sep-05 12:30N 36°50' W 008°27'2 3.0
2017-Sep-05 11:57N 36°50' W 008°25'1 3.0
2017-Sep-05 11:29N 36°49' W 008°23'6 3.1
2017-Sep-05 09:38N 36°49' W 008°16'1 4.1
2017-Sep-05 09:30N 36°49' W 008°16'1 1.0
2017-Sep-05 08:48N 36°49' W 008°15'5 3.0
2017-Sep-05 07:07N 36°49' W 008°08'19 0.6
2017-Sep-03 20:45N 36°50' W 008°32'2 8.9
2017-Sep-03 20:30N 36°50' W 008°29'1 1.6
2017-Sep-03 20:00N 36°49' W 008°28'2 3.1
2017-Sep-03 19:28N 36°50' W 008°26'4 3.0
2017-Sep-03 18:15N 36°49' W 008°22'3 1.9
2017-Sep-03 16:54N 36°48' W 008°19'1 1.9
2017-Sep-03 16:26N 36°49' W 008°20'1 3.2
2017-Sep-03 16:00N 36°49' W 008°21'2 3.3
2017-Sep-03 15:30N 36°49' W 008°23'2 3.2
2017-Sep-03 15:01N 36°49' W 008°25'3 2.0
2017-Sep-03 13:39N 36°49' W 008°29'5 3.0
2017-Sep-03 11:57N 36°49' W 008°23'15 2.5
2017-Sep-03 05:52N 36°49' W 008°41'1 2.3
2017-Sep-03 05:30N 36°49' W 008°42'1 1.9
2017-Sep-03 04:59N 36°49' W 008°44'2 2.9
2017-Sep-03 04:27N 36°49' W 008°45'1 2.8
2017-Sep-03 03:59N 36°50' W 008°47'2 2.9
2017-Sep-03 03:28N 36°50' W 008°49'1 2.9
2017-Sep-03 02:57N 36°50' W 008°51'2 2.9
2017-Sep-03 02:26N 36°50' W 008°53'1 2.9
2017-Sep-03 01:59N 36°50' W 008°54'2 3.4
2017-Sep-03 01:27N 36°49' W 008°56'3 1.9
2017-Sep-03 00:01N 36°50' W 008°53'0 2.9
2017-Sep-02 23:58N 36°50' W 008°53'2 3.0
2017-Sep-02 23:27N 36°50' W 008°51'2 3.0
2017-Sep-02 22:55N 36°51' W 008°49'2 3.0
2017-Sep-02 22:09N 36°50' W 008°46'1 3.0
2017-Sep-02 21:58N 36°50' W 008°46'1 3.0
2017-Sep-02 21:30N 36°50' W 008°44'2 3.2
2017-Sep-02 21:00N 36°50' W 008°42'5 9.1
2017-Sep-02 20:29N 36°49' W 008°36'5 9.9
2017-Sep-02 20:00N 36°49' W 008°30'7 3.3
2017-Sep-02 17:52N 36°49' W 008°21'2 0.7
2017-Sep-02 14:34N 36°49' W 008°24'0 3.2
2017-Sep-02 14:29N 36°49' W 008°25'2 3.1
2017-Sep-02 13:49N 36°49' W 008°27'0 0.0
2017-Sep-02 06:59N 36°49' W 008°27'1 3.1
2017-Sep-02 06:30N 36°49' W 008°29'2 3.5
2017-Sep-02 06:00N 36°49' W 008°31'6 9.2
2017-Sep-02 05:24N 36°52' W 008°37'9 9.4
2017-Sep-02 04:26N 36°55' W 008°47'4 9.5
2017-Sep-02 04:00N 36°57' W 008°52'5 8.9
2017-Sep-02 03:30N 36°58' W 008°58'5 8.9
2017-Sep-02 02:56N 36°59' W 009°04'4 9.0
2017-Sep-02 02:26N 37°03' W 009°06'26 8.1
2017-Sep-01 23:16N 37°28' W 009°17'1 2.3
2017-Sep-01 23:00N 37°28' W 009°17'1 1.3
2017-Sep-01 22:23N 37°27' W 009°17'1 2.3
2017-Sep-01 21:58N 37°26' W 009°17'3 4.1
2017-Sep-01 21:16N 37°29' W 009°18'0 1.1
2017-Sep-01 21:00N 37°29' W 009°18'1 2.2
2017-Sep-01 20:30N 37°30' W 009°18'1 2.6
2017-Sep-01 20:00N 37°31' W 009°18'1 2.6
2017-Sep-01 19:30N 37°32' W 009°19'1 2.6
2017-Sep-01 19:00N 37°34' W 009°20'1 2.7
2017-Sep-01 18:30N 37°35' W 009°21'1 2.7
2017-Sep-01 18:00N 37°36' W 009°22'1 2.6
2017-Sep-01 17:30N 37°37' W 009°22'1 2.3
2017-Sep-01 17:00N 37°38' W 009°23'1 2.5
2017-Sep-01 16:30N 37°37' W 009°22'1 2.4
2017-Sep-01 16:00N 37°36' W 009°21'1 2.3
2017-Sep-01 15:30N 37°35' W 009°20'1 2.4
2017-Sep-01 15:00N 37°34' W 009°19'1 2.5
2017-Sep-01 14:30N 37°33' W 009°19'1 2.5
2017-Sep-01 13:59N 37°32' W 009°18'1 2.3
2017-Sep-01 13:29N 37°31' W 009°17'0 0.7
2017-Sep-01 12:57N 37°31' W 009°18'3 6.7
2017-Sep-01 12:30N 37°34' W 009°19'0 0.1
2017-Sep-01 12:00N 37°34' W 009°19'1 2.6
2017-Sep-01 11:30N 37°35' W 009°20'38 3.5
2017-Sep-01 00:38N 36°60' W 009°01'1 8.5
2017-Sep-01 00:30N 36°59' W 009°00'17 9.3
2017-Aug-31 22:38N 37°03' W 008°39'210.0
2017-Aug-31 22:28N 37°03' W 008°37'510.0
2017-Aug-31 22:00N 37°06' W 008°32'2 4.2
2017-Aug-31 21:30N 37°08' W 008°32'0 0.0
2017-Aug-31 21:00N 37°08' W 008°32'0 0.0
2017-Aug-31 20:31N 37°08' W 008°32'0 0.2
2017-Aug-31 20:00N 37°08' W 008°32'1 1.2
2017-Aug-31 19:31N 37°07' W 008°32'5 9.1
2017-Aug-31 19:00N 37°03' W 008°30'5 9.4
2017-Aug-31 18:31N 36°59' W 008°27'5 9.7
2017-Aug-31 17:57N 36°54' W 008°24'4 9.5
2017-Aug-31 17:29N 36°50' W 008°22'1 1.5
2017-Aug-31 16:32N 36°49' W 008°23'0 2.9
2017-Aug-31 16:30N 36°49' W 008°24'2 3.0
2017-Aug-31 15:56N 36°49' W 008°26'1 3.0
2017-Aug-31 15:29N 36°49' W 008°27'2 3.4
2017-Aug-31 14:49N 36°49' W 008°30'2 7.9
2017-Aug-31 14:30N 36°48' W 008°33'5 2.7
2017-Aug-31 12:44N 36°48' W 008°39'1 3.0
2017-Aug-31 12:30N 36°48' W 008°40'2 3.0
2017-Aug-31 12:00N 36°48' W 008°42'2 3.1
2017-Aug-31 11:30N 36°49' W 008°44'2 3.0
2017-Aug-31 10:55N 36°49' W 008°46'1 3.1
2017-Aug-31 10:30N 36°49' W 008°47'2 3.4
2017-Aug-31 09:54N 36°49' W 008°50'5 2.1
2017-Aug-31 07:26N 36°49' W 008°44'4 0.6
2017-Aug-31 00:35N 36°46' W 008°40'0 2.9
2017-Aug-31 00:27N 36°46' W 008°40'1 3.0
2017-Aug-31 00:00N 36°46' W 008°42'1 3.0
2017-Aug-30 23:30N 36°46' W 008°44'1 2.9
2017-Aug-30 23:00N 36°46' W 008°45'2 2.9
2017-Aug-30 22:27N 36°46' W 008°47'1 2.9
2017-Aug-30 22:00N 36°47' W 008°49'1 2.8
2017-Aug-30 21:30N 36°47' W 008°51'2 2.8
2017-Aug-30 20:51N 36°47' W 008°53'1 4.0
2017-Aug-30 20:29N 36°47' W 008°55'7 2.5
2017-Aug-30 17:32N 36°49' W 008°46'0 3.0
2017-Aug-30 17:30N 36°49' W 008°46'1 2.8
2017-Aug-30 17:00N 36°49' W 008°44'1 2.9
2017-Aug-30 16:30N 36°48' W 008°42'2 2.9
2017-Aug-30 15:42N 36°48' W 008°40'2 2.9
2017-Aug-30 15:05N 36°48' W 008°37'0 2.9
2017-Aug-30 14:59N 36°48' W 008°37'2 3.0
2017-Aug-30 14:21N 36°48' W 008°35'2 4.6
2017-Aug-30 13:56N 36°49' W 008°32'3 7.5
2017-Aug-30 13:30N 36°49' W 008°28'5 2.6
2017-Aug-30 11:38N 36°49' W 008°22'1 3.1
2017-Aug-30 11:11N 36°49' W 008°21'4 3.3
2017-Aug-30 10:03N 36°49' W 008°16'0 1.7
2017-Aug-30 09:55N 36°49' W 008°16'1 1.5
2017-Aug-30 09:12N 36°49' W 008°14'1 3.2
2017-Aug-30 09:00N 36°49' W 008°14'2 3.3
2017-Aug-30 08:30N 36°49' W 008°12'2 3.2
2017-Aug-30 07:56N 36°49' W 008°09'1 3.2
2017-Aug-30 07:30N 36°49' W 008°08'2 3.2
2017-Aug-30 06:58N 36°50' W 008°06'1 3.1
2017-Aug-30 06:30N 36°50' W 008°04'  
2017-Aug-27 15:11N 36°51' W 008°00'1 3.1
2017-Aug-27 14:59N 36°51' W 008°01'1 3.2
2017-Aug-27 14:30N 36°51' W 008°03'2 3.2
2017-Aug-27 14:00N 36°50' W 008°05'1 1.9
2017-Aug-27 13:27N 36°50' W 008°04'  
Track history (hours):
 
Tides and Currents Weather Stations Pressure Air Temp Water Temp Dewpoint Dewpoint Depression Visibility Wind Speed Wind Dir Waves Ship Positions

Mestre Joao Rico

Last reported at 2017-Sep-06 12:56 UTC. Time now 2017-Sep-26 16:39 UTC.
Position N 36°51' W 008°04'.
Warning: this ship's position is 20 days out of date.

Length 24 m.

Type: Fishing. MMSI: 263462000.

Date/timePositionNaut miles runAvg speedWind from/ knotsBaromVisibWave heightAir tempDewpointWater temp
2017-Sep-06 12:56N 36°51' W 008°04'1 1.7
2017-Sep-06 12:30N 36°50' W 008°04'2 3.0
2017-Sep-06 12:00N 36°50' W 008°06'1 3.0
2017-Sep-06 11:30N 36°49' W 008°08'2 2.8
2017-Sep-06 10:57N 36°49' W 008°10'1 3.1
2017-Sep-06 10:30N 36°49' W 008°12'2 4.1
2017-Sep-06 10:00N 36°49' W 008°14'2 3.3
2017-Sep-06 09:30N 36°49' W 008°16'2 3.1
2017-Sep-06 09:00N 36°49' W 008°18'2 3.1
2017-Sep-06 08:30N 36°49' W 008°20'2 3.1
2017-Sep-06 08:00N 36°49' W 008°22'2 3.1
2017-Sep-06 07:30N 36°49' W 008°24'2 3.1
2017-Sep-06 07:00N 36°50' W 008°26'2 3.0
2017-Sep-06 06:26N 36°49' W 008°28'1 2.7
2017-Sep-06 05:56N 36°49' W 008°30'6 9.9
2017-Sep-06 05:22N 36°48' W 008°36'0 0.9
2017-Sep-06 04:58N 36°48' W 008°37'1 2.4
2017-Sep-06 04:23N 36°48' W 008°39'1 3.0
2017-Sep-06 03:57N 36°48' W 008°40'2 3.0
2017-Sep-06 03:26N 36°48' W 008°42'5 3.0
2017-Sep-06 01:47N 36°49' W 008°48'1 2.9
2017-Sep-06 01:30N 36°50' W 008°49'2 2.9
2017-Sep-06 00:49N 36°49' W 008°52'1 4.3
2017-Sep-06 00:30N 36°49' W 008°53'2 1.2
2017-Sep-05 23:01N 36°49' W 008°51'0 2.8
2017-Sep-05 23:00N 36°49' W 008°51'1 2.6
2017-Sep-05 22:30N 36°50' W 008°50'1 2.7
2017-Sep-05 22:00N 36°50' W 008°48'1 2.7
2017-Sep-05 21:30N 36°50' W 008°46'1 2.8
2017-Sep-05 21:00N 36°49' W 008°45'1 2.8
2017-Sep-05 20:30N 36°49' W 008°43'1 2.9
2017-Sep-05 20:00N 36°49' W 008°41'3 6.3
2017-Sep-05 19:30N 36°49' W 008°37'5 9.3
2017-Sep-05 19:00N 36°49' W 008°31'2 3.1
2017-Sep-05 18:30N 36°49' W 008°29'0 0.3
2017-Sep-05 18:00N 36°49' W 008°30'1 1.0
2017-Sep-05 17:26N 36°49' W 008°29'2 3.3
2017-Sep-05 16:51N 36°50' W 008°27'2 3.2
2017-Sep-05 16:08N 36°50' W 008°24'1 3.2
2017-Sep-05 15:58N 36°49' W 008°24'2 3.3
2017-Sep-05 15:29N 36°49' W 008°22'1 2.9
2017-Sep-05 15:00N 36°49' W 008°20'2 3.3
2017-Sep-05 14:17N 36°49' W 008°23'1 3.3
2017-Sep-05 14:00N 36°49' W 008°24'2 3.3
2017-Sep-05 13:30N 36°49' W 008°26'2 3.2
2017-Sep-05 13:00N 36°50' W 008°28'1 2.0
2017-Sep-05 12:30N 36°50' W 008°27'2 3.0
2017-Sep-05 11:57N 36°50' W 008°25'1 3.0
2017-Sep-05 11:29N 36°49' W 008°23'6 3.1
2017-Sep-05 09:38N 36°49' W 008°16'1 4.1
2017-Sep-05 09:30N 36°49' W 008°16'1 1.0
2017-Sep-05 08:48N 36°49' W 008°15'5 3.0
2017-Sep-05 07:07N 36°49' W 008°08'19 0.6
2017-Sep-03 20:45N 36°50' W 008°32'2 8.9
2017-Sep-03 20:30N 36°50' W 008°29'1 1.6
2017-Sep-03 20:00N 36°49' W 008°28'2 3.1
2017-Sep-03 19:28N 36°50' W 008°26'4 3.0
2017-Sep-03 18:15N 36°49' W 008°22'3 1.9
2017-Sep-03 16:54N 36°48' W 008°19'1 1.9
2017-Sep-03 16:26N 36°49' W 008°20'1 3.2
2017-Sep-03 16:00N 36°49' W 008°21'2 3.3
2017-Sep-03 15:30N 36°49' W 008°23'2 3.2
2017-Sep-03 15:01N 36°49' W 008°25'3 2.0
2017-Sep-03 13:39N 36°49' W 008°29'5 3.0
2017-Sep-03 11:57N 36°49' W 008°23'15 2.5
2017-Sep-03 05:52N 36°49' W 008°41'1 2.3
2017-Sep-03 05:30N 36°49' W 008°42'1 1.9
2017-Sep-03 04:59N 36°49' W 008°44'2 2.9
2017-Sep-03 04:27N 36°49' W 008°45'1 2.8
2017-Sep-03 03:59N 36°50' W 008°47'2 2.9
2017-Sep-03 03:28N 36°50' W 008°49'1 2.9
2017-Sep-03 02:57N 36°50' W 008°51'2 2.9
2017-Sep-03 02:26N 36°50' W 008°53'1 2.9
2017-Sep-03 01:59N 36°50' W 008°54'2 3.4
2017-Sep-03 01:27N 36°49' W 008°56'3 1.9
2017-Sep-03 00:01N 36°50' W 008°53'0 2.9
2017-Sep-02 23:58N 36°50' W 008°53'2 3.0
2017-Sep-02 23:27N 36°50' W 008°51'2 3.0
2017-Sep-02 22:55N 36°51' W 008°49'2 3.0
2017-Sep-02 22:09N 36°50' W 008°46'1 3.0
2017-Sep-02 21:58N 36°50' W 008°46'1 3.0
2017-Sep-02 21:30N 36°50' W 008°44'2 3.2
2017-Sep-02 21:00N 36°50' W 008°42'5 9.1
2017-Sep-02 20:29N 36°49' W 008°36'5 9.9
2017-Sep-02 20:00N 36°49' W 008°30'7 3.3
2017-Sep-02 17:52N 36°49' W 008°21'2 0.7
2017-Sep-02 14:34N 36°49' W 008°24'0 3.2
2017-Sep-02 14:29N 36°49' W 008°25'2 3.1
2017-Sep-02 13:49N 36°49' W 008°27'0 0.0
2017-Sep-02 06:59N 36°49' W 008°27'1 3.1
2017-Sep-02 06:30N 36°49' W 008°29'2 3.5
2017-Sep-02 06:00N 36°49' W 008°31'6 9.2
2017-Sep-02 05:24N 36°52' W 008°37'9 9.4
2017-Sep-02 04:26N 36°55' W 008°47'4 9.5
2017-Sep-02 04:00N 36°57' W 008°52'5 8.9
2017-Sep-02 03:30N 36°58' W 008°58'5 8.9
2017-Sep-02 02:56N 36°59' W 009°04'4 9.0
2017-Sep-02 02:26N 37°03' W 009°06'26 8.1
2017-Sep-01 23:16N 37°28' W 009°17'1 2.3
2017-Sep-01 23:00N 37°28' W 009°17'1 1.3
2017-Sep-01 22:23N 37°27' W 009°17'1 2.3
2017-Sep-01 21:58N 37°26' W 009°17'3 4.1
2017-Sep-01 21:16N 37°29' W 009°18'0 1.1
2017-Sep-01 21:00N 37°29' W 009°18'1 2.2
2017-Sep-01 20:30N 37°30' W 009°18'1 2.6
2017-Sep-01 20:00N 37°31' W 009°18'1 2.6
2017-Sep-01 19:30N 37°32' W 009°19'1 2.6
2017-Sep-01 19:00N 37°34' W 009°20'1 2.7
2017-Sep-01 18:30N 37°35' W 009°21'1 2.7
2017-Sep-01 18:00N 37°36' W 009°22'1 2.6
2017-Sep-01 17:30N 37°37' W 009°22'1 2.3
2017-Sep-01 17:00N 37°38' W 009°23'1 2.5
2017-Sep-01 16:30N 37°37' W 009°22'1 2.4
2017-Sep-01 16:00N 37°36' W 009°21'1 2.3
2017-Sep-01 15:30N 37°35' W 009°20'1 2.4
2017-Sep-01 15:00N 37°34' W 009°19'1 2.5
2017-Sep-01 14:30N 37°33' W 009°19'1 2.5
2017-Sep-01 13:59N 37°32' W 009°18'1 2.3
2017-Sep-01 13:29N 37°31' W 009°17'0 0.7
2017-Sep-01 12:57N 37°31' W 009°18'3 6.7
2017-Sep-01 12:30N 37°34' W 009°19'0 0.1
2017-Sep-01 12:00N 37°34' W 009°19'1 2.6
2017-Sep-01 11:30N 37°35' W 009°20'38 3.5
2017-Sep-01 00:38N 36°60' W 009°01'1 8.5
2017-Sep-01 00:30N 36°59' W 009°00'17 9.3
2017-Aug-31 22:38N 37°03' W 008°39'210.0
2017-Aug-31 22:28N 37°03' W 008°37'510.0
2017-Aug-31 22:00N 37°06' W 008°32'2 4.2
2017-Aug-31 21:30N 37°08' W 008°32'0 0.0
2017-Aug-31 21:00N 37°08' W 008°32'0 0.0
2017-Aug-31 20:31N 37°08' W 008°32'0 0.2
2017-Aug-31 20:00N 37°08' W 008°32'1 1.2
2017-Aug-31 19:31N 37°07' W 008°32'5 9.1
2017-Aug-31 19:00N 37°03' W 008°30'5 9.4
2017-Aug-31 18:31N 36°59' W 008°27'5 9.7
2017-Aug-31 17:57N 36°54' W 008°24'4 9.5
2017-Aug-31 17:29N 36°50' W 008°22'1 1.5
2017-Aug-31 16:32N 36°49' W 008°23'0 2.9
2017-Aug-31 16:30N 36°49' W 008°24'2 3.0
2017-Aug-31 15:56N 36°49' W 008°26'1 3.0
2017-Aug-31 15:29N 36°49' W 008°27'2 3.4
2017-Aug-31 14:49N 36°49' W 008°30'2 7.9
2017-Aug-31 14:30N 36°48' W 008°33'5 2.7
2017-Aug-31 12:44N 36°48' W 008°39'1 3.0
2017-Aug-31 12:30N 36°48' W 008°40'2 3.0
2017-Aug-31 12:00N 36°48' W 008°42'2 3.1
2017-Aug-31 11:30N 36°49' W 008°44'2 3.0
2017-Aug-31 10:55N 36°49' W 008°46'1 3.1
2017-Aug-31 10:30N 36°49' W 008°47'2 3.4
2017-Aug-31 09:54N 36°49' W 008°50'5 2.1
2017-Aug-31 07:26N 36°49' W 008°44'4 0.6
2017-Aug-31 00:35N 36°46' W 008°40'0 2.9
2017-Aug-31 00:27N 36°46' W 008°40'1 3.0
2017-Aug-31 00:00N 36°46' W 008°42'1 3.0
2017-Aug-30 23:30N 36°46' W 008°44'1 2.9
2017-Aug-30 23:00N 36°46' W 008°45'2 2.9
2017-Aug-30 22:27N 36°46' W 008°47'1 2.9
2017-Aug-30 22:00N 36°47' W 008°49'1 2.8
2017-Aug-30 21:30N 36°47' W 008°51'2 2.8
2017-Aug-30 20:51N 36°47' W 008°53'1 4.0
2017-Aug-30 20:29N 36°47' W 008°55'7 2.5
2017-Aug-30 17:32N 36°49' W 008°46'0 3.0
2017-Aug-30 17:30N 36°49' W 008°46'1 2.8
2017-Aug-30 17:00N 36°49' W 008°44'1 2.9
2017-Aug-30 16:30N 36°48' W 008°42'2 2.9
2017-Aug-30 15:42N 36°48' W 008°40'2 2.9
2017-Aug-30 15:05N 36°48' W 008°37'0 2.9
2017-Aug-30 14:59N 36°48' W 008°37'2 3.0
2017-Aug-30 14:21N 36°48' W 008°35'2 4.6
2017-Aug-30 13:56N 36°49' W 008°32'3 7.5
2017-Aug-30 13:30N 36°49' W 008°28'5 2.6
2017-Aug-30 11:38N 36°49' W 008°22'1 3.1
2017-Aug-30 11:11N 36°49' W 008°21'4 3.3
2017-Aug-30 10:03N 36°49' W 008°16'0 1.7
2017-Aug-30 09:55N 36°49' W 008°16'1 1.5
2017-Aug-30 09:12N 36°49' W 008°14'1 3.2
2017-Aug-30 09:00N 36°49' W 008°14'2 3.3
2017-Aug-30 08:30N 36°49' W 008°12'2 3.2
2017-Aug-30 07:56N 36°49' W 008°09'1 3.2
2017-Aug-30 07:30N 36°49' W 008°08'2 3.2
2017-Aug-30 06:58N 36°50' W 008°06'1 3.1
2017-Aug-30 06:30N 36°50' W 008°04'  
2017-Aug-27 15:11N 36°51' W 008°00'1 3.1
2017-Aug-27 14:59N 36°51' W 008°01'1 3.2
2017-Aug-27 14:30N 36°51' W 008°03'2 3.2
2017-Aug-27 14:00N 36°50' W 008°05'1 1.9
2017-Aug-27 13:27N 36°50' W 008°04'  

Dump ship's entire track history